createdAt,value
2018-09-16T00:02:24.339Z,98294.88
2018-09-16T00:04:53.891Z,98293.59
2018-09-16T00:07:23.999Z,98287.86
2018-09-16T00:09:52.819Z,98284.77
2018-09-16T00:12:22.059Z,98279.55
2018-09-16T00:14:51.042Z,98279.22
2018-09-16T00:17:19.191Z,98286.25
2018-09-16T00:22:20.646Z,98291.40
2018-09-16T00:24:49.089Z,98292.16
2018-09-16T00:27:18.191Z,98295.30
2018-09-16T00:29:48.258Z,98289.88
2018-09-16T00:34:50.718Z,98284.23
2018-09-16T00:37:21.126Z,98275.62
2018-09-16T00:39:50.963Z,98285.01
2018-09-16T00:42:19.308Z,98285.78
2018-09-16T00:44:50.311Z,98277.42
2018-09-16T00:47:18.152Z,98282.83
2018-09-16T00:49:47.283Z,98283.84
2018-09-16T00:52:16.498Z,98282.05
2018-09-16T00:57:16.248Z,98281.95
2018-09-16T00:59:45.422Z,98272.56
2018-09-16T01:02:13.784Z,98274.16
2018-09-16T01:04:44.214Z,98274.89
2018-09-16T01:07:14.692Z,98281.35
2018-09-16T01:09:44.518Z,98282.58
2018-09-16T01:12:12.766Z,98281.07
2018-09-16T01:14:43.123Z,98281.67
2018-09-16T01:17:13.530Z,98281.32
2018-09-16T01:19:42.311Z,98280.94
2018-09-16T01:22:10.370Z,98282.62
2018-09-16T01:24:40.214Z,98274.58
2018-09-16T01:27:09.431Z,98277.09
2018-09-16T01:32:10.339Z,98274.36
2018-09-16T01:37:14.049Z,98273.70
2018-09-16T01:39:43.936Z,98272.09
2018-09-16T01:44:46.326Z,98274.80
2018-09-16T01:47:16.003Z,98275.47
2018-09-16T01:49:45.951Z,98273.78
2018-09-16T01:52:14.500Z,98273.91
2018-09-16T01:54:43.396Z,98269.70
2018-09-16T01:57:10.503Z,98262.13
2018-09-16T01:59:39.101Z,98265.53
2018-09-16T02:02:11.171Z,98269.09
2018-09-16T02:04:40.925Z,98262.81
2018-09-16T02:07:09.107Z,98273.03
2018-09-16T02:09:36.756Z,98266.15
2018-09-16T02:12:04.762Z,98265.77
2018-09-16T02:14:33.914Z,98266.72
2018-09-16T02:17:01.454Z,98271.33
2018-09-16T02:22:03.701Z,98269.09
2018-09-16T02:24:38.665Z,98270.87
2018-09-16T02:27:06.415Z,98269.53
2018-09-16T02:29:33.434Z,98276.19
2018-09-16T02:32:05.356Z,98274.70
2018-09-16T02:34:37.417Z,98281.45
2018-09-16T02:37:05.892Z,98277.09
2018-09-16T02:39:33.607Z,98281.67
2018-09-16T02:42:00.279Z,98272.92
2018-09-16T02:44:28.623Z,98280.66
2018-09-16T02:46:55.620Z,98275.24
2018-09-16T02:49:23.291Z,98278.61
2018-09-16T02:51:51.630Z,98271.80
2018-09-16T02:56:53.646Z,98270.03
2018-09-16T02:59:21.764Z,98266.45
2018-09-16T03:01:52.546Z,98276.19
2018-09-16T03:04:20.913Z,98271.30
2018-09-16T03:06:50.478Z,98275.19
2018-09-16T03:09:19.338Z,98269.08
2018-09-16T03:11:50.295Z,98272.95
2018-09-16T03:14:18.631Z,98271.47
2018-09-16T03:16:49.920Z,98270.25
2018-09-16T03:19:21.040Z,98269.22
2018-09-16T03:21:47.780Z,98266.87
2018-09-16T03:24:16.025Z,98267.89
2018-09-16T03:26:45.860Z,98269.09
2018-09-16T03:29:16.355Z,98267.30
2018-09-16T03:31:47.381Z,98271.33
2018-09-16T03:34:16.727Z,98266.48
2018-09-16T03:36:46.043Z,98270.98
2018-09-16T03:39:16.136Z,98268.31
2018-09-16T03:41:44.997Z,98265.78
2018-09-16T03:44:12.329Z,98271.07
2018-09-16T03:46:42.000Z,98265.85
2018-09-16T03:49:12.564Z,98266.98
2018-09-16T03:51:43.234Z,98267.44
2018-09-16T03:54:11.627Z,98268.80
2018-09-16T03:56:40.862Z,98271.87
2018-09-16T03:59:10.761Z,98273.16
2018-09-16T04:01:39.213Z,98277.23
2018-09-16T04:04:07.706Z,98271.82
2018-09-16T04:06:35.043Z,98272.92
2018-09-16T04:09:02.930Z,98276.85
2018-09-16T04:11:31.197Z,98277.51
2018-09-16T04:14:02.014Z,98277.16
2018-09-16T04:16:29.911Z,98272.53
2018-09-16T04:18:58.014Z,98273.45
2018-09-16T04:24:03.853Z,98276.64
2018-09-16T04:29:03.004Z,98276.39
2018-09-16T04:31:32.060Z,98280.84
2018-09-16T04:34:03.173Z,98280.23
2018-09-16T04:36:31.707Z,98286.52
2018-09-16T04:39:00.873Z,98279.84
2018-09-16T04:41:29.364Z,98278.52
2018-09-16T04:43:58.459Z,98274.61
2018-09-16T04:46:27.044Z,98281.00
2018-09-16T04:48:54.819Z,98282.41
2018-09-16T04:51:23.689Z,98285.36
2018-09-16T04:53:53.607Z,98285.24
2018-09-16T04:56:23.511Z,98290.34
2018-09-16T04:58:53.058Z,98286.45
2018-09-16T05:01:19.865Z,98290.06
2018-09-16T05:03:47.542Z,98290.78
2018-09-16T05:06:16.150Z,98292.27
2018-09-16T05:08:46.677Z,98292.63
2018-09-16T05:11:14.956Z,98290.27
2018-09-16T05:13:46.044Z,98295.76
2018-09-16T05:18:48.315Z,98295.34
2018-09-16T05:21:18.165Z,98295.61
2018-09-16T05:23:45.800Z,98292.16
2018-09-16T05:26:15.565Z,98299.83
2018-09-16T05:28:44.862Z,98303.58
2018-09-16T05:31:14.661Z,98296.70
2018-09-16T05:33:42.216Z,98306.42
2018-09-16T05:36:10.435Z,98301.77
2018-09-16T05:38:41.301Z,98301.64
2018-09-16T05:41:10.394Z,98305.59
2018-09-16T05:43:40.733Z,98302.52
2018-09-16T05:46:09.279Z,98303.11
2018-09-16T05:48:37.548Z,98302.83
2018-09-16T05:51:05.925Z,98301.96
2018-09-16T05:53:33.708Z,98307.20
2018-09-16T05:58:34.798Z,98306.78
2018-09-16T06:01:03.842Z,98304.38
2018-09-16T06:03:36.045Z,98312.73
2018-09-16T06:06:04.685Z,98313.34
2018-09-16T06:08:34.166Z,98316.02
2018-09-16T06:11:03.094Z,98318.88
2018-09-16T06:13:34.042Z,98318.94
2018-09-16T06:16:00.947Z,98324.06
2018-09-16T06:18:30.263Z,98320.38
2018-09-16T06:20:59.803Z,98318.98
2018-09-16T06:23:27.036Z,98318.39
2018-09-16T06:25:58.993Z,98312.68
2018-09-16T06:28:27.025Z,98321.74
2018-09-16T06:30:55.611Z,98321.41
2018-09-16T06:33:27.099Z,98319.13
2018-09-16T06:35:55.066Z,98321.77
2018-09-16T06:40:56.246Z,98322.80
2018-09-16T06:43:25.194Z,98323.16
2018-09-16T06:45:54.479Z,98319.66
2018-09-16T06:48:23.630Z,98318.80
2018-09-16T06:53:27.607Z,98324.40
2018-09-16T06:55:56.491Z,98322.83
2018-09-16T06:58:25.109Z,98325.33
2018-09-16T07:00:52.989Z,98326.38
2018-09-16T07:03:20.092Z,98326.20
2018-09-16T07:05:47.994Z,98328.30
2018-09-16T07:08:17.361Z,98333.26
2018-09-16T07:10:45.523Z,98333.55
2018-09-16T07:13:13.639Z,98332.86
2018-09-16T07:18:15.763Z,98334.98
2018-09-16T07:20:44.228Z,98330.80
2018-09-16T07:23:13.094Z,98331.51
2018-09-16T07:25:44.062Z,98337.85
2018-09-16T07:30:50.066Z,98331.43
2018-09-16T07:33:18.977Z,98337.91
2018-09-16T07:35:49.744Z,98335.17
2018-09-16T07:38:17.762Z,98338.34
2018-09-16T07:40:49.590Z,98333.94
2018-09-16T07:43:18.057Z,98337.51
2018-09-16T07:45:46.835Z,98336.78
2018-09-16T07:50:52.493Z,98335.44
2018-09-16T07:55:52.859Z,98333.55
2018-09-16T08:00:55.907Z,98335.12
2018-09-16T08:03:23.663Z,98341.86
2018-09-16T08:05:52.873Z,98336.86
2018-09-16T08:10:56.327Z,98334.89
2018-09-16T08:13:28.868Z,98333.28
2018-09-16T08:15:57.269Z,98338.14
2018-09-16T08:23:37.010Z,98325.41
2018-09-16T08:26:08.270Z,98329.49
2018-09-16T08:28:38.344Z,98335.55
2018-09-16T08:31:06.861Z,98332.95
2018-09-16T08:33:35.925Z,98328.08
2018-09-16T08:36:06.418Z,98328.28
2018-09-16T08:46:11.519Z,98329.20
2018-09-16T08:48:41.250Z,98336.98
2018-09-16T08:51:10.635Z,98336.24
2018-09-16T08:53:38.892Z,98337.23
2018-09-16T08:56:06.936Z,98341.03
2018-09-16T08:58:35.970Z,98335.19
2018-09-16T09:06:17.713Z,98331.76
2018-09-16T09:08:44.663Z,98327.13
2018-09-16T09:11:14.628Z,98329.73
2018-09-16T09:13:46.713Z,98327.66
2018-09-16T09:16:19.247Z,98329.55
2018-09-16T09:18:46.476Z,98325.50
2018-09-16T09:21:18.397Z,98320.70
2018-09-16T09:23:49.724Z,98318.58
2018-09-16T09:31:30.716Z,98317.24
2018-09-16T09:36:38.485Z,98306.70
2018-09-16T09:39:10.648Z,98311.48
2018-09-16T09:41:40.971Z,98315.02
2018-09-16T09:44:08.636Z,98306.70
2018-09-16T09:49:10.018Z,98302.91
2018-09-16T09:51:38.026Z,98295.09
2018-09-16T09:56:45.384Z,98290.27
2018-09-16T10:01:45.155Z,98291.16
2018-09-16T10:09:25.628Z,98286.92
2018-09-16T10:11:52.276Z,98289.65
2018-09-16T10:14:22.348Z,98282.20
2018-09-16T10:16:51.136Z,98279.83
2018-09-16T10:24:33.461Z,98282.63
2018-09-16T10:27:07.084Z,98277.22
2018-09-16T10:29:37.858Z,98265.31
2018-09-16T10:32:06.241Z,98269.03
2018-09-16T10:34:38.203Z,98267.15
2018-09-16T10:37:09.336Z,98266.23
2018-09-16T10:39:40.684Z,98270.00
2018-09-16T10:42:09.604Z,98269.75
2018-09-16T10:44:38.463Z,98262.73
2018-09-16T10:49:43.644Z,98264.34
2018-09-16T10:52:16.192Z,98264.91
2018-09-16T10:54:48.707Z,98259.10
2018-09-16T10:59:50.962Z,98251.55
2018-09-16T11:02:18.015Z,98239.73
2018-09-16T11:04:48.409Z,98236.40
2018-09-16T11:07:17.038Z,98234.52
2018-09-16T11:09:47.749Z,98231.39
2018-09-16T11:12:16.944Z,98237.12
2018-09-16T11:19:56.581Z,98224.23
2018-09-16T11:22:30.588Z,98216.68
2018-09-16T11:27:38.318Z,98215.84
2018-09-16T11:30:06.157Z,98214.05
2018-09-16T11:32:43.053Z,98218.42
2018-09-16T11:37:42.656Z,98203.16
2018-09-16T11:40:10.188Z,98211.23
2018-09-16T11:42:37.969Z,98205.77
2018-09-16T11:45:09.981Z,98209.39
2018-09-16T11:47:38.298Z,98210.64
2018-09-16T11:50:08.621Z,98205.64
2018-09-16T11:52:36.615Z,98203.08
2018-09-16T11:55:04.517Z,98198.06
2018-09-16T11:57:33.776Z,98198.89
2018-09-16T12:00:04.167Z,98201.94
2018-09-16T12:02:35.654Z,98186.32
2018-09-16T12:05:06.268Z,98185.88
2018-09-16T12:07:35.090Z,98184.30
2018-09-16T12:10:03.529Z,98180.09
2018-09-16T12:12:37.241Z,98172.60
2018-09-16T12:15:06.470Z,98170.81
2018-09-16T12:17:33.956Z,98169.84
2018-09-16T12:20:04.934Z,98167.24
2018-09-16T12:25:06.731Z,98167.35
2018-09-16T12:27:34.983Z,98164.15
2018-09-16T12:30:04.560Z,98159.96
2018-09-16T12:32:33.320Z,98156.30
2018-09-16T12:35:01.574Z,98152.73
2018-09-16T12:37:28.606Z,98155.05
2018-09-16T12:39:59.433Z,98148.20
2018-09-16T12:42:29.769Z,98145.11
2018-09-16T12:45:04.609Z,98138.48
2018-09-16T12:47:35.378Z,98143.09
2018-09-16T12:50:05.100Z,98136.89
2018-09-16T12:52:35.012Z,98133.24
2018-09-16T12:57:38.922Z,98129.66
2018-09-16T13:00:09.046Z,98125.16
2018-09-16T13:07:50.902Z,98115.20
2018-09-16T13:18:10.924Z,98108.57
2018-09-16T13:23:11.357Z,98102.77
2018-09-16T13:25:40.822Z,98101.38
2018-09-16T13:28:07.810Z,98103.91
2018-09-16T13:30:36.336Z,98101.19
2018-09-16T13:35:47.777Z,98100.11
2018-09-16T13:38:17.791Z,98091.36
2018-09-16T13:43:26.998Z,98094.13
2018-09-16T13:45:58.065Z,98091.73
2018-09-16T13:48:32.388Z,98084.69
2018-09-16T13:53:35.806Z,98085.66
2018-09-16T13:56:05.846Z,98085.93
2018-09-16T13:58:35.073Z,98077.79
2018-09-16T14:03:42.183Z,98075.39
2018-09-16T14:06:10.955Z,98084.02
2018-09-16T14:08:42.763Z,98084.41
2018-09-16T14:11:10.830Z,98077.55
2018-09-16T14:13:39.496Z,98082.48
2018-09-16T14:16:06.303Z,98075.52
2018-09-16T14:18:35.032Z,98068.07
2018-09-16T14:21:03.246Z,98061.08
2018-09-16T14:23:37.396Z,98061.05
2018-09-16T14:26:05.821Z,98052.34
2018-09-16T14:28:34.070Z,98046.64
2018-09-16T14:31:02.028Z,98042.87
2018-09-16T14:33:30.958Z,98046.23
2018-09-16T14:35:58.479Z,98047.51
2018-09-16T14:38:26.365Z,98048.38
2018-09-16T14:40:54.585Z,98043.86
2018-09-16T14:43:25.177Z,98038.44
2018-09-16T14:51:11.019Z,98044.16
2018-09-16T14:53:37.816Z,98039.45
2018-09-16T14:56:10.053Z,98035.18
2018-09-16T14:58:39.282Z,98029.18
2018-09-16T15:01:08.135Z,98032.23
2018-09-16T15:03:35.640Z,98027.97
2018-09-16T15:06:03.098Z,98031.76
2018-09-16T15:11:07.715Z,98019.59
2018-09-16T15:13:36.158Z,98027.27
2018-09-16T15:16:04.740Z,98022.66
2018-09-16T15:18:36.271Z,98023.85
2018-09-16T15:21:06.512Z,98016.84
2018-09-16T15:23:35.596Z,98020.14
2018-09-16T15:26:04.060Z,98019.39
2018-09-16T15:31:13.373Z,98019.76
2018-09-16T15:41:45.639Z,98018.00
2018-09-16T15:44:13.088Z,98018.45
2018-09-16T15:49:18.930Z,98014.39
2018-09-16T15:51:46.680Z,98015.67
2018-09-16T15:54:14.314Z,98018.95
2018-09-16T15:56:41.478Z,98026.94
2018-09-16T15:59:12.549Z,98024.24
2018-09-16T16:06:47.333Z,98025.84
2018-09-16T16:09:18.096Z,98028.61
2018-09-16T16:11:46.975Z,98024.76
2018-09-16T16:14:16.356Z,98022.02
2018-09-16T16:16:44.466Z,98029.58
2018-09-16T16:19:12.143Z,98024.95
2018-09-16T16:21:39.628Z,98032.28
2018-09-16T16:24:06.963Z,98023.30
2018-09-16T16:29:06.687Z,98034.34
2018-09-16T16:31:35.775Z,98031.65
2018-09-16T16:34:03.157Z,98033.80
2018-09-16T16:36:33.948Z,98032.50
2018-09-16T16:41:35.951Z,98031.56
2018-09-16T16:46:36.399Z,98036.97
2018-09-16T16:49:04.084Z,98034.82
2018-09-16T16:51:31.486Z,98045.34
2018-09-16T16:53:59.512Z,98043.45
2018-09-16T16:56:30.066Z,98052.63
2018-09-16T16:58:58.094Z,98046.72
2018-09-16T17:01:28.075Z,98055.88
2018-09-16T17:03:56.421Z,98050.68
2018-09-16T17:06:26.030Z,98056.59
2018-09-16T17:13:59.969Z,98050.04
2018-09-16T17:24:04.236Z,98046.72
2018-09-16T17:26:33.635Z,98054.19
2018-09-16T17:29:03.685Z,98051.72
2018-09-16T17:31:34.744Z,98049.54
2018-09-16T17:34:03.581Z,98054.91
2018-09-16T17:36:31.816Z,98059.22
2018-09-16T17:41:33.995Z,98064.53
2018-09-16T17:44:08.621Z,98067.15
2018-09-16T17:46:38.035Z,98075.21
2018-09-16T17:49:06.662Z,98074.91
2018-09-16T17:54:13.357Z,98079.82
2018-09-16T17:59:23.499Z,98076.20
2018-09-16T18:01:56.524Z,98079.45
2018-09-16T18:04:25.706Z,98083.75
2018-09-16T18:06:54.371Z,98080.31
2018-09-16T18:09:22.968Z,98081.61
2018-09-16T18:11:53.146Z,98091.61
2018-09-16T18:14:23.385Z,98093.16
2018-09-16T18:16:55.464Z,98094.77
2018-09-16T18:19:29.424Z,98099.72
2018-09-16T18:21:59.148Z,98094.71
2018-09-16T18:24:34.313Z,98101.66
2018-09-16T18:27:04.783Z,98099.06
2018-09-16T18:32:04.025Z,98109.00
2018-09-16T18:34:32.122Z,98110.86
2018-09-16T18:37:03.358Z,98120.25
2018-09-16T18:39:36.168Z,98117.50
2018-09-16T18:42:04.856Z,98113.31
2018-09-16T18:44:36.270Z,98116.66
2018-09-16T18:47:11.906Z,98120.17
2018-09-16T18:49:43.287Z,98118.59
2018-09-16T18:52:10.299Z,98115.47
2018-09-16T18:54:37.439Z,98115.33
2018-09-16T18:59:40.816Z,98115.60
2018-09-16T19:02:13.524Z,98120.97
2018-09-16T19:04:45.784Z,98116.91
2018-09-16T19:07:15.064Z,98114.08
2018-09-16T19:09:43.607Z,98115.78
2018-09-16T19:12:13.455Z,98114.36
2018-09-16T19:14:44.571Z,98117.08
2018-09-16T19:17:13.273Z,98119.63
2018-09-16T19:19:42.122Z,98117.61
2018-09-16T19:22:12.262Z,98115.12
2018-09-16T19:27:15.686Z,98116.54
2018-09-16T19:29:43.874Z,98113.98
2018-09-16T19:32:12.389Z,98114.28
2018-09-16T19:34:43.739Z,98115.81
2018-09-16T19:37:12.980Z,98113.55
2018-09-16T19:39:41.164Z,98108.67
2018-09-16T19:42:10.093Z,98108.58
2018-09-16T19:44:39.323Z,98108.94
2018-09-16T19:47:09.483Z,98105.57
2018-09-16T19:52:11.646Z,98107.31
2018-09-16T19:54:43.192Z,98118.75
2018-09-16T19:57:11.183Z,98112.06
2018-09-16T19:59:39.217Z,98117.84
2018-09-16T20:02:11.427Z,98116.77
2018-09-16T20:04:41.052Z,98109.42
2018-09-16T20:07:10.436Z,98117.39
2018-09-16T20:09:38.127Z,98116.98
2018-09-16T20:12:05.947Z,98115.30
2018-09-16T20:14:35.284Z,98116.13
2018-09-16T20:17:03.575Z,98116.73
2018-09-16T20:19:34.415Z,98115.92
2018-09-16T20:22:02.638Z,98121.72
2018-09-16T20:24:30.882Z,98123.44
2018-09-16T20:26:59.758Z,98120.86
2018-09-16T20:29:29.477Z,98124.03
2018-09-16T20:31:58.061Z,98124.95
2018-09-16T20:34:26.207Z,98126.26
2018-09-16T20:36:54.956Z,98125.25
2018-09-16T20:39:26.488Z,98129.57
2018-09-16T20:41:56.598Z,98128.73
2018-09-16T20:44:27.406Z,98133.94
2018-09-16T20:46:57.282Z,98134.46
2018-09-16T20:49:26.127Z,98128.80
2018-09-16T20:51:53.737Z,98123.52
2018-09-16T20:54:22.042Z,98122.36
2018-09-16T20:56:52.142Z,98126.72
2018-09-16T20:59:21.835Z,98129.47
2018-09-16T21:01:51.631Z,98129.66
2018-09-16T21:04:21.099Z,98122.39
2018-09-16T21:07:00.093Z,98128.92
2018-09-16T21:09:28.184Z,98127.58
2018-09-16T21:11:57.047Z,98133.27
2018-09-16T21:14:25.990Z,98137.09
2018-09-16T21:16:55.420Z,98133.33
2018-09-16T21:19:24.795Z,98126.77
2018-09-16T21:21:53.450Z,98137.40
2018-09-16T21:24:20.766Z,98126.00
2018-09-16T21:26:51.437Z,98133.55
2018-09-16T21:29:20.558Z,98129.02
2018-09-16T21:31:49.471Z,98130.94
2018-09-16T21:34:18.982Z,98126.70
2018-09-16T21:36:49.957Z,98128.79
2018-09-16T21:39:20.534Z,98127.85
2018-09-16T21:41:48.653Z,98132.25
2018-09-16T21:44:21.241Z,98134.34
2018-09-16T21:46:50.372Z,98135.59
2018-09-16T21:49:23.494Z,98130.31
2018-09-16T21:51:52.586Z,98128.31
2018-09-16T21:54:24.512Z,98130.24
2018-09-16T21:56:55.509Z,98127.63
2018-09-16T21:59:27.317Z,98132.16
2018-09-16T22:01:55.208Z,98123.48
2018-09-16T22:04:24.993Z,98130.02
2018-09-16T22:06:53.254Z,98129.03
2018-09-16T22:09:22.569Z,98122.51
2018-09-16T22:11:50.945Z,98121.38
2018-09-16T22:14:21.669Z,98119.17
2018-09-16T22:16:50.824Z,98112.39
2018-09-16T22:19:20.111Z,98112.60
2018-09-16T22:27:05.216Z,98109.62
2018-09-16T22:29:36.701Z,98103.94
2018-09-16T22:32:06.066Z,98112.08
2018-09-16T22:34:34.445Z,98108.43
2018-09-16T22:37:03.422Z,98110.57
2018-09-16T22:39:31.910Z,98111.23
2018-09-16T22:42:05.312Z,98113.31
2018-09-16T22:44:33.767Z,98105.83
2018-09-16T22:47:01.659Z,98104.59
2018-09-16T22:49:29.661Z,98102.56
2018-09-16T22:51:59.822Z,98107.34
2018-09-16T22:54:28.841Z,98104.88
2018-09-16T22:56:57.423Z,98101.47
2018-09-16T22:59:24.482Z,98101.62
2018-09-16T23:01:55.176Z,98098.55
2018-09-16T23:04:23.652Z,98094.44
2018-09-16T23:06:52.074Z,98091.44
2018-09-16T23:09:19.538Z,98097.94
2018-09-16T23:11:50.456Z,98093.70
2018-09-16T23:14:20.058Z,98091.47
2018-09-16T23:16:48.246Z,98093.22
2018-09-16T23:19:16.665Z,98090.98
2018-09-16T23:21:46.352Z,98092.31
2018-09-16T23:24:13.916Z,98084.94
2018-09-16T23:26:41.577Z,98082.72
2018-09-16T23:31:43.667Z,98085.63
2018-09-16T23:34:13.344Z,98079.52
2018-09-16T23:36:43.136Z,98078.83
2018-09-16T23:39:11.050Z,98077.59
2018-09-16T23:41:39.762Z,98071.13
2018-09-16T23:46:41.603Z,98065.66
2018-09-16T23:49:08.801Z,98063.52
2018-09-16T23:51:36.208Z,98064.91
2018-09-16T23:56:35.696Z,98060.47
2018-09-16T23:59:04.624Z,98058.27
